createdAt,value
2022-10-15T00:00:26.119Z,99157.81
2022-10-15T00:00:57.632Z,99153.16
2022-10-15T00:01:29.158Z,99155.41
2022-10-15T00:02:00.579Z,99155.91
2022-10-15T00:02:31.937Z,99162.16
2022-10-15T00:03:03.376Z,99160.88
2022-10-15T00:03:34.723Z,99157.03
2022-10-15T00:04:06.124Z,99158.94
2022-10-15T00:04:37.546Z,99158.94
2022-10-15T00:05:08.915Z,99158.94
2022-10-15T00:05:40.290Z,99158.94
2022-10-15T00:06:11.698Z,99155.41
2022-10-15T00:06:43.080Z,99158.94
2022-10-15T00:07:14.549Z,99158.47
2022-10-15T00:07:45.936Z,99157.81
2022-10-15T00:08:17.487Z,99157.34
2022-10-15T00:08:48.937Z,99154.28
2022-10-15T00:09:20.339Z,99154.28
2022-10-15T00:09:51.793Z,99152.34
2022-10-15T00:10:23.183Z,99148.81
2022-10-15T00:10:54.540Z,99154.28
2022-10-15T00:11:26.111Z,99147.53
2022-10-15T00:11:57.447Z,99149.94
2022-10-15T00:12:28.873Z,99148.00
2022-10-15T00:13:00.297Z,99152.69
2022-10-15T00:13:31.771Z,99153.47
2022-10-15T00:14:03.115Z,99147.53
2022-10-15T00:14:34.508Z,99148.00
2022-10-15T00:15:06.072Z,99151.06
2022-10-15T00:15:37.430Z,99149.94
2022-10-15T00:16:08.828Z,99139.00
2022-10-15T00:16:40.235Z,99142.88
2022-10-15T00:17:11.611Z,99149.13
2022-10-15T00:17:43.043Z,99146.41
2022-10-15T00:18:14.419Z,99149.94
2022-10-15T00:18:45.787Z,99141.72
2022-10-15T00:19:17.209Z,99140.94
2022-10-15T00:19:48.599Z,99145.59
2022-10-15T00:20:20.095Z,99142.53
2022-10-15T00:20:51.445Z,99142.53
2022-10-15T00:21:22.850Z,99137.88
2022-10-15T00:21:54.329Z,99143.66
2022-10-15T00:22:26.003Z,99132.72
2022-10-15T00:22:57.636Z,99134.66
2022-10-15T00:23:29.033Z,99132.72
2022-10-15T00:24:00.453Z,99143.34
2022-10-15T00:24:31.841Z,99131.91
2022-10-15T00:25:03.232Z,99141.72
2022-10-15T00:25:34.752Z,99136.59
2022-10-15T00:26:06.178Z,99133.53
2022-10-15T00:26:37.546Z,99141.72
2022-10-15T00:27:08.920Z,99140.13
2022-10-15T00:27:40.329Z,99142.88
2022-10-15T00:28:11.684Z,99145.59
2022-10-15T00:28:43.112Z,99143.19
2022-10-15T00:29:14.575Z,99140.44
2022-10-15T00:29:45.981Z,99131.44
2022-10-15T00:30:17.352Z,99139.66
2022-10-15T00:30:48.833Z,99139.66
2022-10-15T00:31:20.213Z,99145.59
2022-10-15T00:31:51.638Z,99143.19
2022-10-15T00:32:23.203Z,99137.72
2022-10-15T00:32:54.873Z,99134.97
2022-10-15T00:33:26.271Z,99140.44
2022-10-15T00:33:57.645Z,99141.56
2022-10-15T00:34:29.079Z,99142.38
2022-10-15T00:35:00.433Z,99141.25
2022-10-15T00:35:31.820Z,99136.91
2022-10-15T00:36:03.256Z,99136.91
2022-10-15T00:36:34.677Z,99130.31
2022-10-15T00:37:06.067Z,99128.38
2022-10-15T00:37:37.447Z,99134.97
2022-10-15T00:38:08.848Z,99128.72
2022-10-15T00:38:40.271Z,99125.97
2022-10-15T00:39:11.658Z,99125.97
2022-10-15T00:39:43.028Z,99125.97
2022-10-15T00:40:14.433Z,99121.31
2022-10-15T00:40:45.878Z,99124.84
2022-10-15T00:41:17.256Z,99137.72
2022-10-15T00:41:48.616Z,99121.31
2022-10-15T00:42:20.162Z,99122.09
2022-10-15T00:42:51.730Z,99117.78
2022-10-15T00:43:23.210Z,99121.31
2022-10-15T00:43:54.677Z,99119.38
2022-10-15T00:44:26.076Z,99125.16
2022-10-15T00:44:57.485Z,99120.50
2022-10-15T00:45:28.920Z,99120.50
2022-10-15T00:46:00.347Z,99117.78
2022-10-15T00:46:31.760Z,99125.97
2022-10-15T00:47:03.229Z,99122.75
2022-10-15T00:47:34.682Z,99116.97
2022-10-15T00:48:06.101Z,99116.97
2022-10-15T00:48:37.464Z,99117.28
2022-10-15T00:49:08.812Z,99121.63
2022-10-15T00:49:40.223Z,99117.28
2022-10-15T00:50:11.614Z,99120.03
2022-10-15T00:50:42.993Z,99120.81
2022-10-15T00:51:14.401Z,99111.81
2022-10-15T00:51:45.798Z,99117.28
2022-10-15T00:52:17.286Z,99120.81
2022-10-15T00:52:48.752Z,99122.75
2022-10-15T00:53:20.097Z,99120.81
2022-10-15T00:53:51.455Z,99121.63
2022-10-15T00:54:22.814Z,99124.69
2022-10-15T00:54:54.248Z,99124.38
2022-10-15T00:55:25.666Z,99123.88
2022-10-15T00:55:57.122Z,99121.63
2022-10-15T00:56:28.482Z,99117.28
2022-10-15T00:56:59.958Z,99113.44
2022-10-15T00:57:31.289Z,99119.69
2022-10-15T00:58:02.941Z,99120.03
2022-10-15T00:58:34.374Z,99118.91
2022-10-15T00:59:05.794Z,99118.09
2022-10-15T00:59:37.145Z,99121.16
2022-10-15T01:00:08.503Z,99118.09
2022-10-15T01:00:39.921Z,99109.41
2022-10-15T01:01:11.366Z,99115.69
2022-10-15T01:01:42.810Z,99118.09
2022-10-15T01:02:14.215Z,99110.53
2022-10-15T01:02:45.580Z,99108.59
2022-10-15T01:03:16.977Z,99118.41
2022-10-15T01:03:48.317Z,99117.59
2022-10-15T01:04:19.686Z,99114.06
2022-10-15T01:04:51.073Z,99115.69
2022-10-15T01:05:22.460Z,99112.94
2022-10-15T01:05:53.822Z,99114.06
2022-10-15T01:06:25.245Z,99114.06
2022-10-15T01:06:56.631Z,99114.88
2022-10-15T01:07:28.049Z,99114.06
2022-10-15T01:07:59.409Z,99122.75
2022-10-15T01:08:30.851Z,99121.16
2022-10-15T01:09:02.378Z,99117.59
2022-10-15T01:09:33.795Z,99118.41
2022-10-15T01:10:05.220Z,99116.81
2022-10-15T01:10:36.584Z,99127.75
2022-10-15T01:11:07.924Z,99119.53
2022-10-15T01:11:39.352Z,99122.28
2022-10-15T01:12:10.724Z,99122.28
2022-10-15T01:12:42.116Z,99127.75
2022-10-15T01:13:13.584Z,99122.28
2022-10-15T01:13:45.008Z,99123.41
2022-10-15T01:14:16.384Z,99126.13
2022-10-15T01:14:47.762Z,99123.88
2022-10-15T01:15:19.104Z,99125.81
2022-10-15T01:15:50.444Z,99125.81
2022-10-15T01:16:21.835Z,99125.00
2022-10-15T01:16:53.187Z,99121.47
2022-10-15T01:17:25.006Z,99127.75
2022-10-15T01:17:56.577Z,99131.59
2022-10-15T01:18:27.948Z,99122.28
2022-10-15T01:18:59.431Z,99127.75
2022-10-15T01:19:30.797Z,99122.28
2022-10-15T01:20:02.178Z,99116.81
2022-10-15T01:20:33.651Z,99114.88
2022-10-15T01:21:05.074Z,99115.69
2022-10-15T01:21:36.411Z,99117.59
2022-10-15T01:22:07.750Z,99116.00
2022-10-15T01:22:39.142Z,99115.19
2022-10-15T01:23:10.570Z,99115.19
2022-10-15T01:23:42.002Z,99117.94
2022-10-15T01:24:13.375Z,99117.13
2022-10-15T01:24:44.779Z,99116.31
2022-10-15T01:25:52.340Z,99117.94
2022-10-15T01:26:23.679Z,99109.25
2022-10-15T01:26:55.054Z,99112.78
2022-10-15T01:27:26.851Z,99113.59
2022-10-15T01:27:58.440Z,99112.78
2022-10-15T01:28:29.814Z,99113.91
2022-10-15T01:29:01.221Z,99110.84
2022-10-15T01:29:32.648Z,99112.78
2022-10-15T01:30:04.040Z,99111.66
2022-10-15T01:30:35.487Z,99104.59
2022-10-15T01:31:06.824Z,99106.50
2022-10-15T01:31:38.164Z,99108.91
2022-10-15T01:32:09.564Z,99107.31
2022-10-15T01:32:40.971Z,99111.66
2022-10-15T01:33:12.391Z,99107.00
2022-10-15T01:33:43.763Z,99104.59
2022-10-15T01:34:50.124Z,99106.19
2022-10-15T01:35:21.494Z,99112.78
2022-10-15T01:35:52.888Z,99111.97
2022-10-15T01:36:24.232Z,99107.31
2022-10-15T01:36:55.631Z,99113.59
2022-10-15T01:37:27.074Z,99107.63
2022-10-15T01:37:58.469Z,99109.25
2022-10-15T01:38:29.910Z,99108.13
2022-10-15T01:39:01.257Z,99110.06
2022-10-15T01:39:32.584Z,99102.97
2022-10-15T01:40:03.987Z,99107.31
2022-10-15T01:40:35.370Z,99110.84
2022-10-15T01:41:07.235Z,99110.84
2022-10-15T01:41:38.590Z,99105.38
2022-10-15T01:42:09.948Z,99106.50
2022-10-15T01:42:41.309Z,99110.06
2022-10-15T01:43:12.841Z,99105.38
2022-10-15T01:43:44.272Z,99110.06
2022-10-15T01:44:15.640Z,99116.31
2022-10-15T01:44:47.022Z,99110.38
2022-10-15T01:45:18.385Z,99111.97
2022-10-15T01:45:49.758Z,99121.78
2022-10-15T01:46:21.151Z,99109.25
2022-10-15T01:46:52.523Z,99115.53
2022-10-15T01:47:24.159Z,99107.63
2022-10-15T01:47:55.701Z,99110.84
2022-10-15T01:48:27.096Z,99107.63
2022-10-15T01:48:58.500Z,99109.25
2022-10-15T01:49:29.884Z,99109.25
2022-10-15T01:50:01.240Z,99109.25
2022-10-15T01:50:32.647Z,99108.44
2022-10-15T01:51:03.991Z,99109.25
2022-10-15T01:51:35.397Z,99106.84
2022-10-15T01:52:06.786Z,99118.56
2022-10-15T01:52:38.109Z,99108.44
2022-10-15T01:53:09.483Z,99108.75
2022-10-15T01:53:40.926Z,99112.31
2022-10-15T01:54:12.325Z,99119.38
2022-10-15T01:54:43.664Z,99111.19
2022-10-15T01:55:15.055Z,99114.72
2022-10-15T01:55:46.431Z,99120.50
2022-10-15T01:56:17.853Z,99123.25
2022-10-15T01:56:49.246Z,99126.78
2022-10-15T01:57:20.956Z,99129.50
2022-10-15T01:57:52.649Z,99126.78
2022-10-15T01:58:24.074Z,99129.50
2022-10-15T01:58:55.460Z,99127.91
2022-10-15T01:59:26.877Z,99131.13
2022-10-15T01:59:58.325Z,99134.97
2022-10-15T02:00:29.769Z,99126.78
2022-10-15T02:01:01.205Z,99122.13
2022-10-15T02:01:32.728Z,99126.78
2022-10-15T02:02:04.232Z,99129.50
2022-10-15T02:02:35.645Z,99125.66
2022-10-15T02:03:07.025Z,99123.25
2022-10-15T02:03:38.367Z,99120.19
2022-10-15T02:04:09.730Z,99124.84
2022-10-15T02:04:41.099Z,99117.78
2022-10-15T02:05:12.465Z,99126.78
2022-10-15T02:05:43.874Z,99125.66
2022-10-15T02:06:15.291Z,99125.66
2022-10-15T02:06:46.641Z,99115.84
2022-10-15T02:07:18.152Z,99125.97
2022-10-15T02:07:49.707Z,99124.84
2022-10-15T02:08:21.136Z,99119.38
2022-10-15T02:08:52.583Z,99124.03
2022-10-15T02:09:24.016Z,99123.25
2022-10-15T02:09:55.490Z,99127.09
2022-10-15T02:10:26.842Z,99127.91
2022-10-15T02:10:58.195Z,99124.03
2022-10-15T02:11:29.814Z,99122.44
2022-10-15T02:12:01.315Z,99125.97
2022-10-15T02:12:32.723Z,99125.16
2022-10-15T02:13:04.049Z,99125.16
2022-10-15T02:13:35.371Z,99125.66
2022-10-15T02:14:06.711Z,99116.97
2022-10-15T02:14:38.155Z,99118.56
2022-10-15T02:15:09.579Z,99122.44
2022-10-15T02:15:41.020Z,99122.44
2022-10-15T02:16:12.366Z,99122.91
2022-10-15T02:16:43.711Z,99126.78
2022-10-15T02:17:15.116Z,99125.97
2022-10-15T02:17:46.466Z,99130.63
2022-10-15T02:18:17.845Z,99129.84
2022-10-15T02:18:49.235Z,99126.28
2022-10-15T02:19:20.581Z,99124.38
2022-10-15T02:19:52.115Z,99129.03
2022-10-15T02:20:23.527Z,99133.38
2022-10-15T02:20:54.899Z,99131.75
2022-10-15T02:21:26.290Z,99125.50
2022-10-15T02:21:57.642Z,99126.28
2022-10-15T02:22:29.012Z,99124.69
2022-10-15T02:23:00.388Z,99121.94
2022-10-15T02:23:31.798Z,99126.28
2022-10-15T02:24:03.169Z,99122.75
2022-10-15T02:24:34.572Z,99126.28
2022-10-15T02:25:06.045Z,99126.28
2022-10-15T02:25:37.432Z,99126.28
2022-10-15T02:26:08.885Z,99124.38
2022-10-15T02:26:40.180Z,99126.28
2022-10-15T02:27:11.605Z,99128.22
2022-10-15T02:27:42.997Z,99113.75
2022-10-15T02:28:14.896Z,99117.28
2022-10-15T02:28:46.361Z,99109.41
2022-10-15T02:29:17.915Z,99113.75
2022-10-15T02:29:49.332Z,99118.41
2022-10-15T02:30:20.771Z,99109.41
2022-10-15T02:30:52.207Z,99106.66
2022-10-15T02:31:23.645Z,99111.34
2022-10-15T02:31:55.028Z,99106.66
2022-10-15T02:32:26.653Z,99112.16
2022-10-15T02:32:58.324Z,99102.00
2022-10-15T02:33:29.655Z,99100.88
2022-10-15T02:34:01.022Z,99101.69
2022-10-15T02:34:32.390Z,99102.81
2022-10-15T02:35:03.969Z,99098.94
2022-10-15T02:35:35.375Z,99100.09
2022-10-15T02:36:06.800Z,99102.81
2022-10-15T02:36:38.187Z,99102.00
2022-10-15T02:37:09.643Z,99103.63
2022-10-15T02:37:41.100Z,99102.81
2022-10-15T02:38:43.768Z,99104.41
2022-10-15T02:39:15.214Z,99110.69
2022-10-15T02:39:46.615Z,99106.03
2022-10-15T02:40:18.023Z,99107.97
2022-10-15T02:40:49.431Z,99102.81
2022-10-15T02:41:20.883Z,99105.22
2022-10-15T02:41:52.301Z,99105.22
2022-10-15T02:42:23.947Z,99106.34
2022-10-15T02:42:55.547Z,99101.69
2022-10-15T02:43:27.015Z,99098.94
2022-10-15T02:43:58.349Z,99109.09
2022-10-15T02:44:29.723Z,99100.09
2022-10-15T02:45:01.065Z,99093.47
2022-10-15T02:45:32.543Z,99104.41
2022-10-15T02:46:03.872Z,99102.81
2022-10-15T02:46:35.322Z,99104.41
2022-10-15T02:47:06.738Z,99099.75
2022-10-15T02:47:38.071Z,99103.63
2022-10-15T02:48:09.457Z,99108.75
2022-10-15T02:48:40.944Z,99108.28
2022-10-15T02:49:12.298Z,99102.81
2022-10-15T02:49:43.682Z,99107.16
2022-10-15T02:50:15.063Z,99098.94
2022-10-15T02:50:46.458Z,99104.41
2022-10-15T02:51:17.940Z,99099.75
2022-10-15T02:51:49.407Z,99104.41
2022-10-15T02:52:21.094Z,99096.53
2022-10-15T02:52:52.752Z,99101.22
2022-10-15T02:53:24.109Z,99097.34
2022-10-15T02:53:55.518Z,99101.22
2022-10-15T02:54:26.888Z,99105.53
2022-10-15T02:54:58.259Z,99103.94
2022-10-15T02:55:29.659Z,99109.41
2022-10-15T02:56:01.164Z,99110.22
2022-10-15T02:56:32.582Z,99108.28
2022-10-15T02:57:03.958Z,99105.22
2022-10-15T02:57:35.390Z,99109.88
2022-10-15T02:58:06.813Z,99108.28
2022-10-15T02:58:38.186Z,99120.81
2022-10-15T02:59:09.616Z,99115.34
2022-10-15T02:59:41.004Z,99114.88
2022-10-15T03:00:12.451Z,99115.34
2022-10-15T03:00:43.840Z,99114.56
2022-10-15T03:01:15.443Z,99112.94
2022-10-15T03:01:46.874Z,99119.53
2022-10-15T03:02:19.345Z,99111.34
2022-10-15T03:02:50.756Z,99116.81
2022-10-15T03:03:22.481Z,99117.59
2022-10-15T03:03:54.170Z,99109.41
2022-10-15T03:04:25.624Z,99109.72
2022-10-15T03:04:57.029Z,99114.88
2022-10-15T03:05:59.759Z,99116.81
2022-10-15T03:06:31.226Z,99120.66
2022-10-15T03:07:02.608Z,99116.47
2022-10-15T03:07:34.023Z,99120.34
2022-10-15T03:08:05.456Z,99119.22
2022-10-15T03:08:36.886Z,99117.59
2022-10-15T03:09:08.285Z,99110.53
2022-10-15T03:09:39.726Z,99123.06
2022-10-15T03:10:11.133Z,99123.88
2022-10-15T03:10:42.589Z,99128.53
2022-10-15T03:11:14.072Z,99120.34
2022-10-15T03:11:45.595Z,99125.81
2022-10-15T03:12:17.048Z,99135.13
2022-10-15T03:12:48.456Z,99130.78
2022-10-15T03:13:19.891Z,99127.75
2022-10-15T03:13:51.320Z,99126.94
2022-10-15T03:14:22.725Z,99132.41
2022-10-15T03:14:54.157Z,99125.34
2022-10-15T03:15:25.558Z,99132.41
2022-10-15T03:15:57.016Z,99135.13
2022-10-15T03:16:28.461Z,99130.00
2022-10-15T03:16:59.872Z,99126.47
2022-10-15T03:17:31.308Z,99126.47
2022-10-15T03:18:02.758Z,99118.25
2022-10-15T03:18:36.823Z,99125.66
2022-10-15T03:19:11.344Z,99127.25
2022-10-15T03:19:42.742Z,99118.25
2022-10-15T03:20:16.972Z,99118.25
2022-10-15T03:20:48.389Z,99126.47
2022-10-15T03:21:19.909Z,99119.38
2022-10-15T03:21:51.266Z,99122.91
2022-10-15T03:22:22.681Z,99119.38
2022-10-15T03:22:54.089Z,99122.13
2022-10-15T03:23:25.649Z,99122.13
2022-10-15T03:23:57.046Z,99125.66
2022-10-15T03:24:28.537Z,99120.19
2022-10-15T03:24:59.981Z,99115.84
2022-10-15T03:25:31.425Z,99117.44
2022-10-15T03:26:02.986Z,99120.19
2022-10-15T03:26:34.411Z,99121.00
2022-10-15T03:27:05.894Z,99117.44
2022-10-15T03:27:37.323Z,99117.44
2022-10-15T03:28:08.794Z,99114.72
2022-10-15T03:28:40.317Z,99115.53
2022-10-15T03:29:11.763Z,99115.53
2022-10-15T03:29:43.246Z,99117.44
2022-10-15T03:30:14.703Z,99115.84
2022-10-15T03:30:46.136Z,99116.66
2022-10-15T03:31:17.656Z,99112.31
2022-10-15T03:31:49.060Z,99113.09
2022-10-15T03:32:20.467Z,99114.72
2022-10-15T03:32:51.929Z,99109.25
2022-10-15T03:33:25.149Z,99110.69
2022-10-15T03:33:56.871Z,99110.38
2022-10-15T03:34:28.331Z,99111.97
2022-10-15T03:34:59.728Z,99112.31
2022-10-15T03:35:31.141Z,99112.31
2022-10-15T03:36:02.629Z,99111.19
2022-10-15T03:36:34.074Z,99113.91
2022-10-15T03:37:05.585Z,99110.38
2022-10-15T03:37:37.088Z,99108.75
2022-10-15T03:38:08.494Z,99095.91
2022-10-15T03:38:39.899Z,99097.50
2022-10-15T03:39:11.387Z,99099.44
2022-10-15T03:39:42.838Z,99095.09
2022-10-15T03:40:14.767Z,99089.94
2022-10-15T03:40:46.277Z,99104.09
2022-10-15T03:41:17.665Z,99093.16
2022-10-15T03:41:49.208Z,99093.16
2022-10-15T03:42:20.764Z,99089.63
2022-10-15T03:42:52.361Z,99092.34
2022-10-15T03:43:23.805Z,99085.28
2022-10-15T03:43:55.236Z,99086.91
2022-10-15T03:44:26.685Z,99084.16
2022-10-15T03:44:58.083Z,99084.16
2022-10-15T03:45:29.490Z,99084.16
2022-10-15T03:46:00.970Z,99083.34
2022-10-15T03:46:32.401Z,99084.16
2022-10-15T03:47:03.922Z,99078.69
2022-10-15T03:47:35.307Z,99075.16
2022-10-15T03:48:06.721Z,99083.34
2022-10-15T03:48:38.218Z,99086.91
2022-10-15T03:49:09.615Z,99086.91
2022-10-15T03:49:41.067Z,99088.81
2022-10-15T03:50:12.472Z,99081.44
2022-10-15T03:51:23.609Z,99088.03
2022-10-15T03:51:57.048Z,99093.16
2022-10-15T03:52:28.531Z,99095.91
2022-10-15T03:52:59.960Z,99090.44
2022-10-15T03:53:31.408Z,99086.91
2022-10-15T03:54:02.897Z,99089.31
2022-10-15T03:54:34.317Z,99093.16
2022-10-15T03:55:05.751Z,99088.50
2022-10-15T03:55:37.196Z,99093.16
2022-10-15T03:56:08.645Z,99081.44
2022-10-15T03:56:40.232Z,99085.28
2022-10-15T03:57:11.610Z,99085.78
2022-10-15T03:57:43.056Z,99085.78
2022-10-15T03:58:14.515Z,99088.50
2022-10-15T03:58:45.963Z,99088.50
2022-10-15T03:59:17.405Z,99082.22
2022-10-15T03:59:48.798Z,99088.50
2022-10-15T04:00:20.266Z,99085.78
2022-10-15T04:00:51.760Z,99084.63
2022-10-15T04:01:23.297Z,99084.63
2022-10-15T04:01:54.798Z,99084.63
2022-10-15T04:02:26.596Z,99086.56
2022-10-15T04:02:58.314Z,99088.19
2022-10-15T04:03:29.756Z,99079.97
2022-10-15T04:04:01.201Z,99089.31
2022-10-15T04:04:32.617Z,99089.31
2022-10-15T04:05:04.058Z,99085.44
2022-10-15T04:05:35.474Z,99084.63
2022-10-15T04:06:07.032Z,99093.31
2022-10-15T04:06:38.454Z,99092.03
2022-10-15T04:07:09.919Z,99088.66
2022-10-15T04:07:41.319Z,99091.41
2022-10-15T04:08:12.791Z,99087.53
2022-10-15T04:08:44.319Z,99094.13
2022-10-15T04:09:15.757Z,99098.00
2022-10-15T04:09:47.235Z,99088.66
2022-10-15T04:10:18.649Z,99098.00
2022-10-15T04:10:50.004Z,99097.19
2022-10-15T04:11:21.428Z,99090.91
2022-10-15T04:11:52.827Z,99098.78
2022-10-15T04:12:24.459Z,99097.19
2022-10-15T04:12:56.052Z,99094.44
2022-10-15T04:13:27.538Z,99087.84
2022-10-15T04:13:58.945Z,99097.66
2022-10-15T04:14:30.356Z,99094.13
2022-10-15T04:15:01.771Z,99091.41
2022-10-15T04:15:33.156Z,99087.84
2022-10-15T04:16:04.591Z,99086.25
2022-10-15T04:16:36.059Z,99087.06
2022-10-15T04:17:07.539Z,99085.44
2022-10-15T04:17:38.923Z,99091.72
2022-10-15T04:18:10.350Z,99084.63
2022-10-15T04:18:41.822Z,99085.94
2022-10-15T04:19:13.193Z,99088.19
2022-10-15T04:19:44.628Z,99093.66
2022-10-15T04:20:16.018Z,99091.72
2022-10-15T04:20:47.489Z,99085.44
2022-10-15T04:21:18.897Z,99096.88
2022-10-15T04:21:50.299Z,99093.66
2022-10-15T04:22:22.022Z,99096.88
2022-10-15T04:22:53.625Z,99090.91
2022-10-15T04:23:25.038Z,99091.72
2022-10-15T04:23:56.472Z,99088.19
2022-10-15T04:24:27.924Z,99090.09
2022-10-15T04:24:59.355Z,99093.66
2022-10-15T04:25:30.968Z,99084.97
2022-10-15T04:26:02.371Z,99101.03
2022-10-15T04:26:33.807Z,99096.38
2022-10-15T04:27:05.259Z,99095.56
2022-10-15T04:27:36.788Z,99099.13
2022-10-15T04:28:08.365Z,99094.78
2022-10-15T04:28:39.890Z,99092.03
2022-10-15T04:29:11.346Z,99110.38
2022-10-15T04:29:42.842Z,99099.13
2022-10-15T04:30:14.319Z,99095.56
2022-10-15T04:30:45.704Z,99101.03
2022-10-15T04:31:17.151Z,99106.50
2022-10-15T04:31:48.590Z,99100.25
2022-10-15T04:32:20.030Z,99099.13
2022-10-15T04:32:51.578Z,99102.16
2022-10-15T04:33:22.996Z,99102.97
2022-10-15T04:33:54.465Z,99104.09
2022-10-15T04:34:25.884Z,99104.91
2022-10-15T04:34:57.283Z,99103.78
2022-10-15T04:35:28.681Z,99106.50
2022-10-15T04:36:00.054Z,99100.25
2022-10-15T04:36:31.466Z,99100.25
2022-10-15T04:37:02.889Z,99101.38
2022-10-15T04:37:34.389Z,99099.44
2022-10-15T04:38:05.841Z,99104.91
2022-10-15T04:38:37.240Z,99093.97
2022-10-15T04:39:10.921Z,99099.44
2022-10-15T04:39:45.170Z,99109.25
2022-10-15T04:40:16.563Z,99101.03
2022-10-15T04:40:48.011Z,99100.25
2022-10-15T04:41:19.430Z,99108.44
2022-10-15T04:41:53.585Z,99105.72
2022-10-15T04:42:25.025Z,99101.84
2022-10-15T04:42:56.491Z,99110.06
2022-10-15T04:43:27.961Z,99101.53
2022-10-15T04:43:59.367Z,99105.38
2022-10-15T04:44:30.751Z,99103.78
2022-10-15T04:45:02.450Z,99105.72
2022-10-15T04:45:33.965Z,99113.09
2022-10-15T04:46:05.353Z,99104.91
2022-10-15T04:46:36.777Z,99110.69
2022-10-15T04:47:08.219Z,99115.03
2022-10-15T04:47:39.709Z,99104.91
2022-10-15T04:48:11.208Z,99102.16
2022-10-15T04:48:43.429Z,99108.75
2022-10-15T04:49:15.063Z,99113.44
2022-10-15T04:49:46.574Z,99108.75
2022-10-15T04:50:17.961Z,99108.75
2022-10-15T04:50:49.410Z,99106.84
2022-10-15T04:51:20.858Z,99111.50
2022-10-15T04:51:52.297Z,99105.22
2022-10-15T04:52:23.733Z,99106.03
2022-10-15T04:52:55.204Z,99097.81
2022-10-15T04:53:26.637Z,99101.38
2022-10-15T04:53:58.035Z,99098.63
2022-10-15T04:54:29.453Z,99099.75
2022-10-15T04:55:00.863Z,99103.28
2022-10-15T04:55:32.260Z,99097.03
2022-10-15T04:56:03.747Z,99098.63
2022-10-15T04:56:35.111Z,99100.56
2022-10-15T04:57:06.605Z,99107.97
2022-10-15T04:57:38.095Z,99107.47
2022-10-15T04:58:09.505Z,99109.72
2022-10-15T04:58:41.020Z,99111.81
2022-10-15T04:59:12.476Z,99099.75
2022-10-15T04:59:43.946Z,99109.09
2022-10-15T05:00:15.377Z,99104.75
2022-10-15T05:00:46.811Z,99113.75
2022-10-15T05:01:18.252Z,99114.56
2022-10-15T05:01:49.658Z,99114.88
2022-10-15T05:02:21.134Z,99107.47
2022-10-15T05:02:52.556Z,99105.53
2022-10-15T05:03:24.013Z,99104.75
2022-10-15T05:03:55.462Z,99111.00
2022-10-15T05:04:26.900Z,99106.34
2022-10-15T05:04:58.317Z,99106.34
2022-10-15T05:05:29.716Z,99115.34
2022-10-15T05:06:01.203Z,99106.34
2022-10-15T05:06:32.591Z,99109.09
2022-10-15T05:07:04.038Z,99103.28
2022-10-15T05:07:35.540Z,99109.25
2022-10-15T05:08:07.193Z,99103.78
2022-10-15T05:08:38.618Z,99105.88
2022-10-15T05:09:10.100Z,99110.84
2022-10-15T05:09:46.011Z,99105.06
2022-10-15T05:10:17.832Z,99104.25
2022-10-15T05:10:49.215Z,99104.75
2022-10-15T05:11:20.678Z,99107.47
2022-10-15T05:11:52.098Z,99107.47
2022-10-15T05:12:23.530Z,99113.75
2022-10-15T05:12:56.761Z,99104.75
2022-10-15T05:13:28.599Z,99111.81
2022-10-15T05:13:59.977Z,99112.63
2022-10-15T05:14:31.441Z,99108.28
2022-10-15T05:15:02.925Z,99111.81
2022-10-15T05:15:34.340Z,99117.28
2022-10-15T05:16:05.788Z,99112.94
2022-10-15T05:16:37.275Z,99114.56
2022-10-15T05:17:08.751Z,99111.81
2022-10-15T05:17:40.144Z,99112.63
2022-10-15T05:18:11.564Z,99111.00
2022-10-15T05:18:42.955Z,99114.22
2022-10-15T05:19:14.382Z,99111.81
2022-10-15T05:19:45.838Z,99113.44
2022-10-15T05:20:17.261Z,99104.41
2022-10-15T05:20:48.673Z,99100.88
2022-10-15T05:21:20.169Z,99103.28
2022-10-15T05:21:51.572Z,99106.34
2022-10-15T05:22:23.358Z,99100.88
2022-10-15T05:22:54.900Z,99107.97
2022-10-15T05:23:26.341Z,99103.63
2022-10-15T05:23:57.730Z,99109.09
2022-10-15T05:24:29.166Z,99102.81
2022-10-15T05:25:00.669Z,99106.34
2022-10-15T05:25:32.073Z,99107.97
2022-10-15T05:26:03.557Z,99097.03
2022-10-15T05:26:34.962Z,99094.28
2022-10-15T05:27:06.392Z,99102.81
2022-10-15T05:27:37.822Z,99098.97
2022-10-15T05:28:09.249Z,99098.97
2022-10-15T05:28:40.732Z,99097.03
2022-10-15T05:29:12.222Z,99094.28
2022-10-15T05:29:43.728Z,99092.69
2022-10-15T05:30:15.158Z,99097.03
2022-10-15T05:30:46.564Z,99098.63
2022-10-15T05:31:19.238Z,99094.28
2022-10-15T05:31:50.815Z,99090.44
2022-10-15T05:32:55.225Z,99093.16
2022-10-15T05:33:26.628Z,99091.22
2022-10-15T05:33:58.063Z,99092.34
2022-10-15T05:34:29.500Z,99090.44
2022-10-15T05:35:00.970Z,99098.63
2022-10-15T05:35:32.525Z,99094.78
2022-10-15T05:36:04.061Z,99099.44
2022-10-15T05:36:35.533Z,99095.09
2022-10-15T05:37:07.001Z,99093.97
2022-10-15T05:37:38.446Z,99095.91
2022-10-15T05:38:09.871Z,99098.31
2022-10-15T05:38:41.292Z,99092.03
2022-10-15T05:39:12.698Z,99092.03
2022-10-15T05:39:44.123Z,99090.09
2022-10-15T05:40:18.335Z,99093.66
2022-10-15T05:40:52.669Z,99088.50
2022-10-15T05:41:24.142Z,99089.31
2022-10-15T05:41:55.546Z,99095.56
2022-10-15T05:42:26.953Z,99091.22
2022-10-15T05:42:58.447Z,99094.78
2022-10-15T05:43:29.831Z,99089.31
2022-10-15T05:44:01.356Z,99085.78
2022-10-15T05:44:32.763Z,99090.44
2022-10-15T05:45:04.397Z,99091.22
2022-10-15T05:45:35.850Z,99092.84
2022-10-15T05:46:07.265Z,99094.78
2022-10-15T05:46:38.712Z,99093.16
2022-10-15T05:47:10.109Z,99094.78
2022-10-15T05:47:41.513Z,99089.31
2022-10-15T05:48:12.915Z,99090.91
2022-10-15T05:48:44.384Z,99092.03
2022-10-15T05:49:15.800Z,99092.03
2022-10-15T05:49:47.210Z,99092.03
2022-10-15T05:50:18.650Z,99085.78
2022-10-15T05:50:50.087Z,99091.22
2022-10-15T05:51:21.528Z,99092.03
2022-10-15T05:51:52.953Z,99092.03
2022-10-15T05:52:24.808Z,99088.50
2022-10-15T05:52:56.394Z,99095.91
2022-10-15T05:53:27.837Z,99090.44
2022-10-15T05:53:59.243Z,99097.50
2022-10-15T05:54:30.719Z,99094.78
2022-10-15T05:55:02.164Z,99094.78
2022-10-15T05:55:33.734Z,99099.44
2022-10-15T05:56:05.203Z,99087.69
2022-10-15T05:56:36.593Z,99105.72
2022-10-15T05:57:08.072Z,99095.91
2022-10-15T05:57:39.539Z,99093.97
2022-10-15T05:58:11.002Z,99093.97
2022-10-15T05:58:42.387Z,99094.78
2022-10-15T05:59:13.789Z,99099.75
2022-10-15T05:59:45.277Z,99099.75
2022-10-15T06:00:16.678Z,99097.81
2022-10-15T06:00:48.131Z,99097.03
2022-10-15T06:01:19.601Z,99108.75
2022-10-15T06:01:51.099Z,99097.03
2022-10-15T06:02:22.923Z,99106.84
2022-10-15T06:02:54.745Z,99098.16
2022-10-15T06:03:26.175Z,99099.75
2022-10-15T06:03:57.576Z,99097.34
2022-10-15T06:04:31.802Z,99094.63
2022-10-15T06:05:06.165Z,99102.81
2022-10-15T06:05:37.580Z,99096.53
2022-10-15T06:06:09.003Z,99108.28
2022-10-15T06:06:40.520Z,99112.63
2022-10-15T06:07:11.905Z,99106.34
2022-10-15T06:07:43.295Z,99097.34
2022-10-15T06:08:14.743Z,99100.09
2022-10-15T06:08:46.130Z,99108.28
2022-10-15T06:09:17.670Z,99112.94
2022-10-15T06:09:49.073Z,99110.22
2022-10-15T06:10:23.329Z,99112.94
2022-10-15T06:10:54.719Z,99115.69
2022-10-15T06:11:26.124Z,99112.13
2022-10-15T06:11:57.608Z,99116.47
2022-10-15T06:12:29.037Z,99117.59
2022-10-15T06:13:00.464Z,99121.47
2022-10-15T06:13:31.876Z,99123.88